Time;durP1;ratioP1;P1;durP2;ratioP2;P2;SDS_P1;SDS_P2;PMS_P1;PMS_P2;Temp;Humidity;BMP_temperature;BMP_pressure;BME280_temperature;BME280_humidity;BME280_pressure;Samples;Min_cycle;Max_cycle;Signal;HPM_P1;HPM_P2
2021/03/09 00:02:50;;;;;;;11.88;7.18;;;;;;;-0.41;46.38;98149.00;9987110;29;20053;-77
2021/03/09 00:08:12;;;;;;;12.63;7.88;;;;;;;-0.44;46.46;98152.78;10011871;29;20052;-78
2021/03/09 00:13:32;;;;;;;10.80;6.80;;;;;;;-0.45;46.80;98162.28;9986389;29;20050;-79
2021/03/09 00:18:52;;;;;;;11.88;6.93;;;;;;;-0.51;46.67;98156.81;10011667;29;20050;-79
2021/03/09 00:24:12;;;;;;;14.55;7.50;;;;;;;-0.56;46.91;98156.88;9986013;29;20078;-79
2021/03/09 00:29:32;;;;;;;11.10;7.50;;;;;;;-0.62;47.06;98157.63;9998489;29;20045;-78
2021/03/09 00:34:51;;;;;;;14.75;7.57;;;;;;;-0.70;46.94;98158.69;9998483;29;20442;-79
2021/03/09 00:40:11;;;;;;;12.40;7.20;;;;;;;-0.86;47.10;98154.81;10011076;29;20057;-79
2021/03/09 00:45:31;;;;;;;11.95;7.47;;;;;;;-1.01;47.78;98149.66;10010782;29;20061;-79
2021/03/09 00:50:51;;;;;;;12.07;7.35;;;;;;;-1.04;47.72;98150.69;9985194;29;20107;-78
2021/03/09 00:56:11;;;;;;;12.65;7.40;;;;;;;-1.07;47.74;98134.50;9972163;29;20050;-79
2021/03/09 01:01:30;;;;;;;13.32;7.53;;;;;;;-1.16;48.49;98136.31;9997318;29;20410;-78
2021/03/09 01:06:50;;;;;;;12.23;7.68;;;;;;;-1.26;48.37;98134.34;9996948;29;20479;-79
2021/03/09 01:12:10;;;;;;;16.17;8.50;;;;;;;-1.37;48.95;98121.44;9984650;29;20494;-78
2021/03/09 01:17:30;;;;;;;13.93;8.45;;;;;;;-1.40;48.79;98116.25;9997280;29;20054;-78
2021/03/09 01:22:50;;;;;;;15.30;8.30;;;;;;;-1.47;48.75;98114.75;9984110;29;20183;-79
2021/03/09 01:28:10;;;;;;;15.05;8.73;;;;;;;-1.50;49.37;98104.81;9996477;29;20054;-78
2021/03/09 01:33:30;;;;;;;15.10;8.70;;;;;;;-1.54;49.27;98093.41;9996206;29;20168;-78
2021/03/09 01:38:50;;;;;;;14.60;8.90;;;;;;;-1.55;49.43;98098.13;10008808;29;20050;-78
2021/03/09 01:44:10;;;;;;;13.18;8.75;;;;;;;-1.54;49.51;98090.66;9982992;29;20070;-78
2021/03/09 01:49:32;;;;;;;15.88;9.18;;;;;;;-1.63;49.64;98094.44;9983600;29;20418;-78
2021/03/09 01:54:52;;;;;;;14.57;9.27;;;;;;;-1.62;50.09;98076.75;9995834;29;20046;-78
2021/03/09 02:00:14;;;;;;;15.45;9.13;;;;;;;-1.60;50.64;98074.25;9995467;29;20050;-78
2021/03/09 02:05:35;;;;;;;13.48;9.45;;;;;;;-1.60;50.89;98065.28;10007627;29;20046;-77
2021/03/09 02:10:55;;;;;;;13.23;8.85;;;;;;;-1.63;50.69;98058.84;9995488;29;20060;-78
2021/03/09 02:16:25;;;;;;;14.75;9.63;;;;;;;-1.70;50.86;98059.38;9982410;29;20532;-79
2021/03/09 02:21:59;;;;;;;12.43;8.98;;;;;;;-1.81;51.03;98057.44;10007620;29;20471;-78
2021/03/09 02:27:32;;;;;;;14.15;9.02;;;;;;;-1.89;51.46;98063.91;9982453;29;20046;-78
2021/03/09 02:33:00;;;;;;;13.23;8.68;;;;;;;-1.88;51.50;98051.72;9983052;29;20083;-78
2021/03/09 02:38:21;;;;;;;13.82;9.18;;;;;;;-1.95;51.90;98047.50;9982483;29;20057;-78
2021/03/09 02:43:46;;;;;;;16.98;9.38;;;;;;;-1.98;51.90;98053.25;9994635;29;20062;-77
2021/03/09 02:49:07;;;;;;;16.67;9.43;;;;;;;-2.04;52.36;98043.06;9988254;29;20490;-78
2021/03/09 02:54:27;;;;;;;14.13;9.88;;;;;;;-2.15;51.94;98045.09;9989672;29;20051;-78
2021/03/09 02:59:47;;;;;;;15.40;9.75;;;;;;;-2.23;52.24;98031.19;9989646;29;20042;-78
2021/03/09 03:05:08;;;;;;;14.05;8.98;;;;;;;-2.29;52.90;98044.13;9989009;29;20045;-77
2021/03/09 03:10:27;;;;;;;18.23;9.18;;;;;;;-2.34;52.80;98033.94;10001587;29;20126;-78
2021/03/09 03:15:51;;;;;;;14.77;9.00;;;;;;;-2.35;53.34;98040.66;10001171;29;20110;-77
2021/03/09 03:21:12;;;;;;;15.13;10.15;;;;;;;-2.37;54.21;98041.16;10013986;29;20109;-78
2021/03/09 03:26:43;;;;;;;16.05;10.32;;;;;;;-2.45;53.76;98042.91;9988510;29;20052;-79
2021/03/09 03:32:02;;;;;;;16.73;9.68;;;;;;;-2.50;53.82;98046.41;9989369;29;20054;-77
2021/03/09 03:37:22;;;;;;;14.10;9.52;;;;;;;-2.53;54.18;98047.41;10001256;29;20045;-79
2021/03/09 03:42:42;;;;;;;15.80;9.38;;;;;;;-2.48;53.99;98043.91;10000858;29;20562;-80
2021/03/09 03:48:03;;;;;;;17.42;10.95;;;;;;;-2.49;54.56;98044.44;10014274;29;20057;-78
2021/03/09 03:53:35;;;;;;;19.45;12.38;;;;;;;-2.49;54.36;98047.16;10013482;29;20054;-77
2021/03/09 03:59:12;;;;;;;20.60;12.07;;;;;;;-2.45;54.73;98039.44;10013844;29;20050;-78
2021/03/09 04:04:32;;;;;;;26.73;12.82;;;;;;;-2.40;54.98;98039.44;10012957;29;20697;-77
2021/03/09 04:09:55;;;;;;;21.90;12.20;;;;;;;-2.46;54.85;98030.50;9987518;29;20494;-79
2021/03/09 04:15:15;;;;;;;23.58;14.35;;;;;;;-2.52;55.18;98023.53;9987644;29;20073;-78
2021/03/09 04:20:35;;;;;;;24.67;13.63;;;;;;;-2.55;55.74;98030.00;9986326;29;20053;-77
2021/03/09 04:25:54;;;;;;;21.10;13.45;;;;;;;-2.56;55.52;98025.78;9975101;29;20098;-79
2021/03/09 04:31:16;;;;;;;26.63;14.73;;;;;;;-2.58;55.56;98031.75;9997362;29;20046;-78
2021/03/09 04:36:36;;;;;;;26.02;14.45;;;;;;;-2.66;55.96;98020.59;9969809;29;20494;-77
2021/03/09 04:41:56;;;;;;;24.13;14.18;;;;;;;-2.65;56.33;98019.34;9998287;29;20054;-78
2021/03/09 04:47:16;;;;;;;22.17;14.05;;;;;;;-2.69;56.41;98024.31;9983145;29;20461;-78
2021/03/09 04:52:36;;;;;;;22.88;14.65;;;;;;;-2.73;56.57;98023.81;10004679;29;20412;-78
2021/03/09 04:57:55;;;;;;;24.52;14.60;;;;;;;-2.77;56.84;98017.13;9989415;29;20043;-77
2021/03/09 05:03:15;;;;;;;24.70;14.95;;;;;;;-2.77;56.65;98023.31;9986001;29;20057;-77
2021/03/09 05:08:35;;;;;;;22.92;14.60;;;;;;;-2.82;57.14;98020.59;9958831;29;20050;-77
2021/03/09 05:13:56;;;;;;;24.13;14.85;;;;;;;-2.77;57.40;98020.59;9934635;29;20046;-78
2021/03/09 05:19:16;;;;;;;25.25;15.20;;;;;;;-2.80;57.53;98027.03;9959815;29;20517;-78
2021/03/09 05:24:35;;;;;;;26.15;14.50;;;;;;;-2.77;57.55;98023.31;9960408;29;20099;-78
2021/03/09 05:29:56;;;;;;;23.42;14.98;;;;;;;-2.77;57.83;98038.97;9949983;29;20050;-77
2021/03/09 05:35:16;;;;;;;27.95;15.82;;;;;;;-2.61;58.04;98030.78;10004831;29;20520;-80
2021/03/09 05:40:36;;;;;;;29.70;16.20;;;;;;;-2.13;58.39;98040.59;10007964;29;20042;-78
2021/03/09 05:45:56;;;;;;;24.83;16.48;;;;;;;-1.40;57.56;98048.50;9978643;29;20058;-77
2021/03/09 05:51:16;;;;;;;22.27;15.45;;;;;;;-1.22;57.50;98041.69;9986100;29;20046;-77
2021/03/09 05:56:36;;;;;;;25.42;16.65;;;;;;;-0.66;57.71;98041.28;10004466;29;20050;-77
2021/03/09 06:01:56;;;;;;;25.33;16.80;;;;;;;-0.25;57.01;98040.41;10003377;29;20050;-78
2021/03/09 06:07:20;;;;;;;25.27;16.45;;;;;;;0.28;57.14;98030.56;9969534;29;20049;-77
2021/03/09 06:12:39;;;;;;;23.17;15.80;;;;;;;1.35;57.15;98027.78;10020373;29;20418;-77
2021/03/09 06:18:00;;;;;;;22.98;15.82;;;;;;;2.91;56.67;98031.47;10021070;29;20077;-78
2021/03/09 06:23:27;;;;;;;24.90;16.73;;;;;;;3.79;55.59;98035.34;10032796;29;20084;-79
2021/03/09 06:28:46;;;;;;;23.63;17.00;;;;;;;4.58;54.96;98045.00;10021167;29;20525;-78
2021/03/09 06:34:32;;;;;;;25.08;17.17;;;;;;;6.10;54.65;98046.47;10032262;29;20101;-78
2021/03/09 06:40:03;;;;;;;27.90;19.60;;;;;;;6.96;51.81;98049.84;10032576;29;20045;-78
2021/03/09 06:45:23;;;;;;;28.17;19.25;;;;;;;7.17;50.89;98046.75;10045635;29;20118;-78
2021/03/09 06:50:43;;;;;;;28.67;19.30;;;;;;;6.74;50.46;98047.91;10044853;29;20045;-77
2021/03/09 06:56:25;;;;;;;27.48;17.85;;;;;;;6.51;49.45;98045.97;10058647;29;20045;-78
2021/03/09 07:02:13;;;;;;;29.33;19.40;;;;;;;6.19;49.30;98046.63;10057577;29;20049;-77
2021/03/09 07:07:39;;;;;;;27.17;19.05;;;;;;;5.95;49.30;98047.94;10057235;29;20072;-77
2021/03/09 07:12:59;;;;;;;27.00;19.13;;;;;;;6.35;48.71;98052.84;10055401;29;20053;-77
2021/03/09 07:18:24;;;;;;;27.92;19.85;;;;;;;6.72;48.09;98053.28;10054659;29;20368;-76
2021/03/09 07:23:43;;;;;;;;;;;;;;;7.52;46.18;98050.41;10053959;29;20042;-77
2021/03/09 07:29:03;;;;;;;28.27;19.95;;;;;;;8.12;45.63;98056.03;10030024;29;19924;-77
2021/03/09 07:34:24;;;;;;;32.13;19.70;;;;;;;8.35;44.31;98055.81;10060996;29;20065;-77
2021/03/09 07:39:44;;;;;;;29.35;20.00;;;;;;;8.35;43.46;98061.38;10063631;29;20057;-77
2021/03/09 07:45:05;;;;;;;28.63;19.38;;;;;;;8.44;43.32;98060.72;10050570;29;20552;-77
2021/03/09 07:50:30;;;;;;;28.35;20.45;;;;;;;8.47;42.45;98054.00;10063122;29;20053;-77
2021/03/09 07:56:12;;;;;;;30.90;22.40;;;;;;;8.32;41.68;98050.06;10063431;29;20065;-77
2021/03/09 08:01:46;;;;;;;26.00;19.58;;;;;;;8.05;40.87;98054.78;10036767;29;20537;-77
2021/03/09 08:07:06;;;;;;;26.42;19.38;;;;;;;8.33;41.43;98051.53;10063570;29;20124;-77
2021/03/09 08:12:25;;;;;;;30.08;19.73;;;;;;;9.40;40.95;98050.19;10062684;29;20064;-77
2021/03/09 08:17:45;;;;;;;25.20;19.10;;;;;;;11.18;38.41;98045.03;10049096;29;20478;-78
2021/03/09 08:23:05;;;;;;;28.63;20.80;;;;;;;12.80;36.58;98040.41;10036869;29;20538;-77
2021/03/09 08:28:37;;;;;;;34.05;21.63;;;;;;;14.08;34.05;98046.75;10062010;29;20046;-77
2021/03/09 08:34:08;;;;;;;30.52;19.63;;;;;;;14.36;31.36;98048.41;10061903;29;20489;-78
2021/03/09 08:39:27;;;;;;;26.40;19.88;;;;;;;14.28;31.42;98047.94;10062653;29;20050;-78
2021/03/09 08:44:47;;;;;;;31.60;20.85;;;;;;;13.73;30.60;98031.44;10061333;29;20506;-78
2021/03/09 08:50:07;;;;;;;29.73;21.30;;;;;;;13.60;30.00;98034.09;10061434;29;20082;-78
2021/03/09 08:55:26;;;;;;;33.17;22.15;;;;;;;14.49;29.20;98030.22;10061246;29;20048;-78
2021/03/09 09:00:46;;;;;;;28.25;21.77;;;;;;;14.38;28.25;98033.75;10061002;29;20097;-78
2021/03/09 09:06:06;;;;;;;22.95;18.35;;;;;;;14.52;27.49;98031.78;10047602;29;20478;-77
2021/03/09 09:11:26;;;;;;;24.60;18.52;;;;;;;13.77;27.08;98025.31;10047888;29;20053;-78
2021/03/09 09:16:46;;;;;;;25.40;19.67;;;;;;;14.01;26.76;98032.38;10061185;29;20486;-79
2021/03/09 09:22:06;;;;;;;26.27;19.40;;;;;;;14.19;26.09;98026.38;10047659;29;20045;-79
2021/03/09 09:27:27;;;;;;;24.80;19.73;;;;;;;14.77;25.85;98019.84;10035169;29;20470;-79
2021/03/09 09:32:56;;;;;;;30.80;20.98;;;;;;;14.84;25.37;98027.22;10060609;29;20185;-80
2021/03/09 09:38:17;;;;;;;26.02;20.40;;;;;;;15.38;24.99;98021.03;10064608;29;20405;-79
2021/03/09 09:43:37;;;;;;;30.30;22.50;;;;;;;14.93;24.86;98026.34;10059209;29;20064;-79
2021/03/09 09:48:57;;;;;;;28.45;20.25;;;;;;;15.21;24.85;98024.34;10059624;29;20045;-80
2021/03/09 09:54:16;;;;;;;27.77;19.60;;;;;;;15.04;24.29;98028.34;10059158;29;20046;-78
2021/03/09 09:59:37;;;;;;;28.38;19.95;;;;;;;14.97;24.57;98023.03;10059559;29;20053;-79
2021/03/09 10:04:57;;;;;;;21.95;18.73;;;;;;;15.42;24.31;98021.25;10047236;29;20049;-79
2021/03/09 10:10:17;;;;;;;24.30;19.45;;;;;;;16.33;23.57;98012.50;10059472;29;20057;-79
2021/03/09 10:15:43;;;;;;;23.50;18.40;;;;;;;15.82;23.38;98015.56;10033218;29;20045;-79
2021/03/09 10:21:14;;;;;;;24.27;19.20;;;;;;;15.43;23.45;98021.97;10058967;29;20041;-78
2021/03/09 10:26:43;;;;;;;23.55;17.73;;;;;;;14.59;23.84;98013.94;10058824;29;20049;-78
2021/03/09 10:32:04;;;;;;;23.67;18.77;;;;;;;15.11;24.22;98020.97;10033464;29;20046;-79
2021/03/09 10:37:40;;;;;;;24.17;17.67;;;;;;;15.15;23.72;98010.69;10045125;29;20068;-78
2021/03/09 10:43:01;;;;;;;25.00;17.42;;;;;;;15.22;23.87;98014.53;10034067;29;20078;-78
2021/03/09 10:48:21;;;;;;;21.33;17.70;;;;;;;15.50;23.57;98004.06;10574987;23;20052;-81
2021/03/09 10:53:58;;;;;;;19.10;15.32;;;;;;;14.87;24.36;97997.91;11181579;24;20057;-80
2021/03/09 10:59:17;;;;;;;17.70;14.18;;;;;;;15.07;23.27;97992.66;10054650;29;20053;-81
2021/03/09 11:04:38;;;;;;;22.33;16.40;;;;;;;15.16;23.92;97991.75;10073686;29;20109;-81
2021/03/09 11:09:58;;;;;;;20.98;18.08;;;;;;;14.92;23.58;97988.34;10055117;29;20469;-79
2021/03/09 11:21:52;;;;;;;18.17;15.80;;;;;;;14.26;23.94;97983.25;10198712;23;20025;-81
2021/03/09 11:27:12;;;;;;;21.80;15.77;;;;;;;14.14;24.00;97985.34;9991284;29;20068;-75
2021/03/09 11:32:32;;;;;;;19.15;15.18;;;;;;;13.83;24.07;97975.19;9987924;29;20050;-78
2021/03/09 11:44:00;;;;;;;14.75;12.25;;;;;;;13.48;24.13;97960.47;11760880;23;20037;-81
2021/03/09 11:56:29;;;;;;;14.70;12.65;;;;;;;12.49;24.67;97953.00;12245448;23;20280;31
2021/03/09 12:28:02;;;;;;;15.55;13.45;;;;;;;11.67;25.01;97910.63;10402238;23;20085;-80
2021/03/09 12:33:34;;;;;;;15.23;12.55;;;;;;;10.91;25.91;97904.91;10962437;23;20126;-78
2021/03/09 12:38:53;;;;;;;15.65;12.07;;;;;;;10.68;25.49;97899.81;10029072;29;20061;-80
2021/03/09 12:44:13;;;;;;;15.65;13.20;;;;;;;10.34;26.24;97895.38;10014135;29;20054;-80
2021/03/09 12:55:24;;;;;;;19.50;11.65;;;;;;;10.91;25.79;97879.75;10349144;23;20125;-80
2021/03/09 13:00:44;;;;;;;14.75;12.18;;;;;;;10.88;26.13;97872.56;10012537;29;20049;-80
2021/03/09 13:06:04;;;;;;;28.70;13.30;;;;;;;10.47;26.50;97866.97;10038030;29;20057;-80
2021/03/09 13:11:24;;;;;;;23.00;13.80;;;;;;;10.25;26.41;97865.41;10039074;29;20045;-81
2021/03/09 13:16:44;;;;;;;17.80;12.98;;;;;;;9.64;26.71;97861.03;10055863;29;20053;-81
2021/03/09 13:22:04;;;;;;;17.48;14.20;;;;;;;9.76;27.29;97861.94;10055334;29;20060;-81
2021/03/09 13:27:26;;;;;;;22.80;14.85;;;;;;;9.02;27.54;97860.66;10045341;29;20057;-81
2021/03/09 13:32:46;;;;;;;19.35;13.70;;;;;;;9.14;27.51;97853.19;10038284;29;20462;-81
2021/03/09 13:38:06;;;;;;;17.55;13.48;;;;;;;9.13;27.72;97860.09;10062983;29;20061;-82
2021/03/09 13:43:27;;;;;;;18.02;14.13;;;;;;;8.88;28.42;97852.69;10018239;29;20050;-80
2021/03/09 13:48:46;;;;;;;20.63;12.60;;;;;;;8.72;28.20;97851.47;10039599;29;20068;-79
2021/03/09 13:54:06;;;;;;;16.95;11.32;;;;;;;8.80;28.17;97854.88;10062246;29;20053;-79
2021/03/09 13:59:26;;;;;;;15.93;11.35;;;;;;;8.79;27.99;97850.63;10058181;29;20041;-79
2021/03/09 14:04:46;;;;;;;14.13;9.63;;;;;;;9.10;28.17;97841.75;10057993;29;20409;-79
2021/03/09 14:10:08;;;;;;;14.73;10.63;;;;;;;9.23;27.84;97840.59;10057652;29;20082;-78
2021/03/09 14:15:28;;;;;;;17.17;12.57;;;;;;;9.34;27.49;97840.03;10044675;29;20072;-78
2021/03/09 14:20:48;;;;;;;15.60;12.35;;;;;;;8.56;27.75;97839.09;10027896;29;20094;-78
2021/03/09 14:26:08;;;;;;;14.93;11.25;;;;;;;7.92;27.96;97830.69;10015711;29;20053;-79
2021/03/09 14:31:28;;;;;;;16.27;12.18;;;;;;;7.58;28.03;97836.28;10018024;29;20378;-78
2021/03/09 14:36:48;;;;;;;18.30;12.93;;;;;;;7.37;28.61;97828.34;10006270;29;20049;-79
2021/03/09 14:42:08;;;;;;;17.33;12.30;;;;;;;7.25;28.89;97830.88;10035896;29;20053;-78
2021/03/09 14:47:27;;;;;;;15.32;11.35;;;;;;;7.22;28.67;97826.44;10044130;29;20049;-79
2021/03/09 14:52:47;;;;;;;18.27;11.50;;;;;;;7.12;28.75;97820.06;10034753;29;20061;-78
2021/03/09 14:58:07;;;;;;;16.75;10.68;;;;;;;7.22;28.84;97812.56;10070010;29;20481;-79
2021/03/09 15:03:27;;;;;;;13.45;9.85;;;;;;;7.30;28.35;97818.06;10069634;29;20053;-78
2021/03/09 15:08:47;;;;;;;11.77;9.65;;;;;;;7.09;28.42;97805.31;10095571;29;20409;-78
2021/03/09 15:14:07;;;;;;;14.15;9.02;;;;;;;6.78;27.43;97809.66;10057915;29;20049;-79
2021/03/09 15:19:28;;;;;;;12.45;8.43;;;;;;;6.74;27.94;97803.78;10070064;29;20124;-80
2021/03/09 15:24:48;;;;;;;12.23;8.73;;;;;;;6.67;28.26;97807.34;10069662;29;20052;-79
2021/03/09 15:30:09;;;;;;;10.98;8.48;;;;;;;6.28;28.42;97804.88;10082387;29;20117;-78
2021/03/09 15:35:29;;;;;;;13.00;9.18;;;;;;;6.02;28.23;97806.13;10082446;29;20051;-79
2021/03/09 15:40:49;;;;;;;15.43;10.80;;;;;;;6.02;28.95;97799.84;10082188;29;20052;-79
2021/03/09 15:46:09;;;;;;;17.83;11.57;;;;;;;6.06;28.88;97791.88;10064196;29;20041;-79
2021/03/09 15:51:28;;;;;;;17.42;10.93;;;;;;;5.99;29.01;97790.63;10036830;29;20052;-79
2021/03/09 15:56:48;;;;;;;14.15;9.93;;;;;;;5.79;29.39;97794.41;10063006;29;20500;-79
2021/03/09 16:02:08;;;;;;;13.63;10.05;;;;;;;5.61;29.06;97801.13;10088059;29;20052;-79
2021/03/09 16:07:28;;;;;;;16.00;9.55;;;;;;;5.31;30.01;97790.91;10062593;29;20056;-79
2021/03/09 16:12:48;;;;;;;18.75;11.07;;;;;;;5.08;29.64;97793.72;10075507;29;20075;-79
2021/03/09 16:18:09;;;;;;;15.45;11.90;;;;;;;4.97;30.92;97796.88;10063621;29;20052;-79
2021/03/09 16:23:28;;;;;;;20.00;12.30;;;;;;;4.75;32.48;97792.84;10088041;29;20056;-78
2021/03/09 16:28:48;;;;;;;18.90;10.90;;;;;;;4.52;30.82;97790.06;10055139;29;20049;-79
2021/03/09 16:34:08;;;;;;;15.98;11.70;;;;;;;4.30;31.67;97800.56;10009486;29;20046;-79
2021/03/09 16:39:28;;;;;;;20.73;12.10;;;;;;;4.06;32.25;97803.84;10018148;29;20049;-79
2021/03/09 16:44:48;;;;;;;16.80;12.20;;;;;;;3.82;33.22;97807.09;10031354;29;20050;-78
2021/03/09 16:50:08;;;;;;;15.70;12.57;;;;;;;3.63;34.32;97804.63;10035811;29;20094;-79
2021/03/09 16:55:28;;;;;;;14.95;10.95;;;;;;;3.38;33.53;97809.88;10072879;29;20104;-82
2021/03/09 17:08:06;;;;;;;19.48;12.60;;;;;;;2.98;35.36;97818.44;11740889;23;656511;31
2021/03/09 17:13:36;;;;;;;18.17;12.90;;;;;;;2.82;35.38;97825.16;10459084;23;20059;-80
2021/03/09 17:18:56;;;;;;;19.45;12.88;;;;;;;2.74;37.40;97824.34;9980831;29;20521;-79
2021/03/09 17:24:16;;;;;;;22.83;13.52;;;;;;;2.56;37.66;97835.06;9977017;29;20058;-82
2021/03/09 17:29:36;;;;;;;25.38;14.27;;;;;;;2.51;38.11;97849.72;10021282;29;20060;-80
2021/03/09 17:34:56;;;;;;;21.48;13.52;;;;;;;2.40;38.72;97844.47;9980553;29;20065;-83
2021/03/09 17:40:16;;;;;;;22.48;14.43;;;;;;;2.31;40.48;97850.44;9994886;29;20057;-82
2021/03/09 17:45:36;;;;;;;25.85;14.88;;;;;;;2.18;38.08;97845.72;9967417;29;20109;-81
2021/03/09 17:50:56;;;;;;;23.02;14.57;;;;;;;2.12;40.73;97842.34;10244715;23;20121;-80
2021/03/09 17:56:16;;;;;;;23.92;15.52;;;;;;;2.07;39.23;97856.25;10247841;24;20058;-79
2021/03/09 18:01:37;;;;;;;22.23;15.00;;;;;;;2.03;40.90;97858.59;9983886;29;20058;-78
2021/03/09 18:07:00;;;;;;;21.55;14.40;;;;;;;1.95;41.60;97864.75;9995919;29;20052;-75
2021/03/09 18:12:20;;;;;;;22.30;15.27;;;;;;;1.90;43.24;97875.88;9994947;29;20053;-78
2021/03/09 18:17:40;;;;;;;21.13;14.38;;;;;;;1.83;40.99;97873.78;10014574;29;20418;-86
2021/03/09 18:23:00;;;;;;;23.83;15.57;;;;;;;1.77;41.09;97873.91;10028604;29;20045;-82
2021/03/09 18:28:20;;;;;;;22.55;15.00;;;;;;;1.72;41.40;97880.25;10028468;29;20422;-81
2021/03/09 18:33:40;;;;;;;22.58;15.52;;;;;;;1.69;41.30;97878.56;9993589;29;20042;-82
2021/03/09 18:39:01;;;;;;;26.85;15.82;;;;;;;1.57;41.67;97878.06;10008995;29;20026;-84
2021/03/09 18:44:20;;;;;;;26.60;15.70;;;;;;;1.49;41.76;97890.25;10044592;29;20049;-83
2021/03/09 18:49:40;;;;;;;24.98;16.02;;;;;;;1.50;42.44;97886.22;10029972;29;20046;-76
2021/03/09 18:55:01;;;;;;;22.77;15.25;;;;;;;1.49;42.85;97895.75;10026793;29;20062;-81
2021/03/09 19:00:21;;;;;;;27.45;15.32;;;;;;;1.46;42.66;97896.81;10018393;29;20041;-79
2021/03/09 19:05:41;;;;;;;22.70;15.43;;;;;;;1.48;43.24;97892.25;10015624;29;20050;-76
2021/03/09 19:11:03;;;;;;;23.88;15.23;;;;;;;1.54;43.27;97886.63;10052352;29;20052;-76
2021/03/09 19:16:22;;;;;;;24.20;15.40;;;;;;;1.55;43.41;97891.63;10044134;29;20045;-80
2021/03/09 19:21:42;;;;;;;25.35;14.32;;;;;;;1.63;43.44;97897.19;10537290;24;20062;-78
2021/03/09 19:27:02;;;;;;;25.40;15.65;;;;;;;1.59;43.27;97899.53;10018329;29;20049;-78
2021/03/09 19:32:21;;;;;;;23.20;16.20;;;;;;;1.55;43.33;97902.63;10038607;29;20049;-80
2021/03/09 19:37:41;;;;;;;25.25;16.08;;;;;;;1.50;44.40;97895.19;10026281;29;20413;-78
2021/03/09 19:43:01;;;;;;;22.27;15.15;;;;;;;1.44;44.26;97903.56;10038511;29;20042;-75
2021/03/09 19:48:21;;;;;;;23.10;15.55;;;;;;;1.34;44.23;97902.50;10025018;29;20045;-77
2021/03/09 19:53:40;;;;;;;26.10;15.70;;;;;;;1.27;44.43;97900.41;10037291;29;20054;-76
2021/03/09 19:59:00;;;;;;;28.95;16.75;;;;;;;1.20;44.83;97895.53;10012096;29;20046;-79
2021/03/09 20:04:20;;;;;;;24.10;15.40;;;;;;;1.13;46.13;97896.13;10013740;29;20550;-79
2021/03/09 20:09:41;;;;;;;25.50;14.93;;;;;;;1.14;45.65;97897.63;10057556;29;20044;-85
2021/03/09 20:15:03;;;;;;;21.45;14.90;;;;;;;1.08;47.45;97894.97;10053559;29;20053;-79
2021/03/09 20:20:23;;;;;;;24.05;14.05;;;;;;;0.98;46.49;97902.16;10011917;29;20058;-80
2021/03/09 20:25:43;;;;;;;22.02;14.77;;;;;;;0.90;47.63;97900.56;10023829;29;20053;-80
2021/03/09 20:31:03;;;;;;;23.23;14.40;;;;;;;0.81;47.17;97916.19;10049288;29;20053;-79
2021/03/09 20:36:22;;;;;;;22.45;14.40;;;;;;;0.78;46.73;97911.75;10036719;29;20053;-80
2021/03/09 20:41:42;;;;;;;21.45;14.13;;;;;;;0.77;47.42;97915.75;10023081;29;20113;-79
2021/03/09 20:47:02;;;;;;;21.02;14.20;;;;;;;0.74;47.30;97918.78;10023346;29;20056;-79
2021/03/09 20:52:23;;;;;;;20.42;13.73;;;;;;;0.72;47.52;97907.59;10035729;29;20378;-80
2021/03/09 20:57:43;;;;;;;21.08;13.77;;;;;;;0.68;47.04;97907.91;10010489;29;20052;-80
2021/03/09 21:03:03;;;;;;;26.58;15.52;;;;;;;0.63;47.41;97911.47;10010135;29;20382;-80
2021/03/09 21:08:23;;;;;;;35.45;20.05;;;;;;;0.62;47.14;97903.75;10035208;29;20093;-79
2021/03/09 21:13:43;;;;;;;25.92;15.88;;;;;;;0.57;47.06;97908.06;10022272;29;20049;-80
2021/03/09 21:19:02;;;;;;;24.63;16.23;;;;;;;0.53;47.84;97899.41;10009507;29;20049;-79
2021/03/09 21:24:22;;;;;;;23.73;15.35;;;;;;;0.50;47.64;97903.19;10047630;29;20046;-80
2021/03/09 21:29:42;;;;;;;25.45;16.98;;;;;;;0.46;47.94;97903.47;10034459;29;20046;-79
2021/03/09 21:35:03;;;;;;;29.70;17.45;;;;;;;0.44;48.12;97897.78;10021532;29;20405;-80
2021/03/09 21:40:23;;;;;;;27.27;18.15;;;;;;;0.43;47.95;97892.81;10021496;29;20060;-80
2021/03/09 21:45:43;;;;;;;27.00;18.23;;;;;;;0.40;48.25;97878.13;10021045;29;20042;-80
2021/03/09 21:51:03;;;;;;;25.92;17.00;;;;;;;0.39;48.37;97875.91;10020437;29;20045;-80
2021/03/09 21:56:22;;;;;;;27.95;17.33;;;;;;;0.39;48.75;97881.41;10033252;29;20048;-80
2021/03/09 22:01:42;;;;;;;24.50;16.25;;;;;;;0.38;48.85;97875.13;10045894;29;20049;-79
2021/03/09 22:07:02;;;;;;;25.73;17.02;;;;;;;0.42;48.90;97874.84;10045338;29;20115;-79
2021/03/09 22:12:22;;;;;;;24.70;16.65;;;;;;;0.48;49.19;97884.50;10019998;29;20057;-80
2021/03/09 22:17:42;;;;;;;27.65;17.73;;;;;;;0.52;49.18;97873.19;10019537;29;20497;-79
2021/03/09 22:23:01;;;;;;;25.23;16.42;;;;;;;0.53;49.25;97871.91;10045692;29;20053;-80
2021/03/09 22:28:21;;;;;;;25.80;17.35;;;;;;;0.63;49.55;97873.00;10032506;29;20053;-80
2021/03/09 22:33:42;;;;;;;29.95;17.60;;;;;;;0.74;49.32;97855.59;10007060;29;20049;-78
2021/03/09 22:39:11;;;;;;;27.63;17.63;;;;;;;0.86;49.17;97862.38;10007194;29;20072;-79
2021/03/09 22:44:32;;;;;;;28.35;16.70;;;;;;;0.86;49.53;97857.63;10008229;29;20117;-79
2021/03/09 22:49:52;;;;;;;28.02;17.55;;;;;;;0.86;49.47;97860.38;10006403;29;20057;-80
2021/03/09 22:55:12;;;;;;;24.45;17.95;;;;;;;0.80;49.88;97854.25;10006247;29;20050;-79
2021/03/09 23:00:31;;;;;;;32.33;20.02;;;;;;;0.85;49.51;97855.41;10032055;29;20395;-79
2021/03/09 23:05:51;;;;;;;27.67;17.75;;;;;;;0.88;49.48;97864.63;10025491;29;20405;-79
2021/03/09 23:11:11;;;;;;;32.53;19.23;;;;;;;0.93;49.70;97867.25;10013810;29;20046;-79
2021/03/09 23:16:33;;;;;;;30.13;19.75;;;;;;;0.95;49.88;97864.72;10026971;29;20046;-79
2021/03/09 23:21:53;;;;;;;36.13;20.00;;;;;;;0.93;49.71;97866.50;10026163;29;20374;-80
2021/03/09 23:27:13;;;;;;;32.97;20.13;;;;;;;0.94;50.06;97874.22;10013353;29;20054;-79
2021/03/09 23:32:33;;;;;;;34.80;21.15;;;;;;;0.92;50.25;97863.03;10025901;29;20053;-79
2021/03/09 23:37:52;;;;;;;30.73;20.30;;;;;;;0.92;50.32;97867.78;10064281;29;20490;-79
2021/03/09 23:43:13;;;;;;;31.42;20.73;;;;;;;0.95;49.73;97878.44;10025707;29;20563;-80
2021/03/09 23:48:33;;;;;;;29.33;19.77;;;;;;;0.98;50.30;97868.44;10025449;29;20052;-79
2021/03/09 23:53:53;;;;;;;30.08;20.10;;;;;;;1.01;50.07;97859.88;10012487;29;20078;-80
2021/03/09 23:59:13;;;;;;;33.30;21.30;;;;;;;1.05;50.48;97870.53;10024824;29;20049;-80
